createdAt,value
2022-09-02T00:02:17.508Z,100730.59
2022-09-02T00:05:44.398Z,100729.70
2022-09-02T00:09:41.920Z,100729.83
2022-09-02T00:12:33.367Z,100732.63
2022-09-02T00:15:07.477Z,100736.55
2022-09-02T00:18:30.594Z,100736.64
2022-09-02T00:21:23.996Z,100735.46
2022-09-02T00:24:21.748Z,100739.14
2022-09-02T00:27:16.921Z,100740.16
2022-09-02T00:30:08.877Z,100736.96
2022-09-02T00:33:01.911Z,100743.00
2022-09-02T00:35:50.691Z,100742.17
2022-09-02T00:38:43.168Z,100744.30
2022-09-02T00:41:34.059Z,100748.86
2022-09-02T00:44:25.005Z,100748.97
2022-09-02T00:47:22.929Z,100750.58
2022-09-02T00:50:19.531Z,100750.30
2022-09-02T00:53:03.838Z,100749.61
2022-09-02T00:56:05.250Z,100748.27
2022-09-02T00:58:44.563Z,100752.20
2022-09-02T01:01:27.603Z,100751.04
2022-09-02T01:04:22.053Z,100749.80
2022-09-02T01:07:11.884Z,100752.16
2022-09-02T01:10:09.304Z,100748.11
2022-09-02T01:12:58.669Z,100745.12
2022-09-02T01:15:55.455Z,100746.13
2022-09-02T01:18:37.364Z,100744.34
2022-09-02T01:21:27.718Z,100747.71
2022-09-02T01:24:14.683Z,100743.80
2022-09-02T01:27:04.718Z,100742.06
2022-09-02T01:29:38.464Z,100745.19
2022-09-02T01:32:26.477Z,100745.96
2022-09-02T01:35:03.215Z,100750.30
2022-09-02T01:37:55.820Z,100752.10
2022-09-02T01:41:01.227Z,100754.48
2022-09-02T01:43:44.845Z,100756.11
2022-09-02T01:46:55.793Z,100760.84
2022-09-02T01:49:32.650Z,100761.80
2022-09-02T01:52:49.034Z,100758.35
2022-09-02T01:55:29.128Z,100754.15
2022-09-02T01:58:24.477Z,100747.37
2022-09-02T02:00:59.438Z,100745.95
2022-09-02T02:04:13.313Z,100746.09
2022-09-02T02:07:00.321Z,100744.70
2022-09-02T02:09:52.101Z,100745.83
2022-09-02T02:12:32.648Z,100748.85
2022-09-02T02:15:12.546Z,100747.23
2022-09-02T02:18:02.168Z,100744.41
2022-09-02T02:20:52.782Z,100742.31
2022-09-02T02:23:37.661Z,100741.36
2022-09-02T02:26:36.376Z,100741.98
2022-09-02T02:29:32.159Z,100740.48
2022-09-02T02:32:46.009Z,100739.38
2022-09-02T02:36:04.866Z,100735.33
2022-09-02T02:39:06.902Z,100737.92
2022-09-02T02:41:51.824Z,100738.48
2022-09-02T02:44:45.651Z,100741.07
2022-09-02T02:47:38.687Z,100740.38
2022-09-02T02:50:24.043Z,100739.22
2022-09-02T02:53:24.906Z,100733.83
2022-09-02T02:56:41.310Z,100728.96
2022-09-02T02:59:29.789Z,100731.70
2022-09-02T03:02:18.582Z,100733.48
2022-09-02T03:05:20.073Z,100732.52
2022-09-02T03:08:17.768Z,100731.34
2022-09-02T03:10:59.019Z,100734.54
2022-09-02T03:13:59.756Z,100732.46
2022-09-02T03:16:47.170Z,100732.39
2022-09-02T03:19:18.834Z,100726.44
2022-09-02T03:22:22.233Z,100728.18
2022-09-02T03:24:53.712Z,100724.91
2022-09-02T03:27:33.054Z,100727.99
2022-09-02T03:30:53.095Z,100726.34
2022-09-02T03:33:43.644Z,100724.11
2022-09-02T03:36:45.893Z,100725.39
2022-09-02T03:39:20.514Z,100724.73
2022-09-02T03:42:23.158Z,100724.40
2022-09-02T03:44:58.591Z,100724.80
2022-09-02T03:47:51.181Z,100723.30
2022-09-02T03:50:53.377Z,100725.04
2022-09-02T03:53:44.493Z,100729.48
2022-09-02T03:56:19.263Z,100733.02
2022-09-02T03:58:57.583Z,100731.98
2022-09-02T04:01:34.514Z,100732.91
2022-09-02T04:04:23.368Z,100727.28
2022-09-02T04:07:07.113Z,100730.68
2022-09-02T04:09:46.616Z,100730.81
2022-09-02T04:12:55.335Z,100732.02
2022-09-02T04:15:39.471Z,100733.74
2022-09-02T04:18:26.965Z,100737.20
2022-09-02T04:21:20.253Z,100736.72
2022-09-02T04:24:21.315Z,100737.30
2022-09-02T04:27:27.637Z,100740.05
2022-09-02T04:30:10.626Z,100743.98
2022-09-02T04:33:02.795Z,100742.05
2022-09-02T04:35:36.119Z,100744.02
2022-09-02T04:38:04.788Z,100739.33
2022-09-02T04:40:58.221Z,100739.76
2022-09-02T04:43:49.846Z,100739.70
2022-09-02T04:46:36.391Z,100738.21
2022-09-02T04:49:09.070Z,100740.09
2022-09-02T04:51:52.708Z,100740.44
2022-09-02T04:54:33.135Z,100740.39
2022-09-02T04:57:43.650Z,100738.99
2022-09-02T05:00:31.507Z,100723.52
2022-09-02T05:03:07.124Z,100735.33
2022-09-02T05:05:39.484Z,100737.50
2022-09-02T05:08:13.784Z,100738.59
2022-09-02T05:10:48.344Z,100741.30
2022-09-02T05:13:30.895Z,100742.14
2022-09-02T05:16:01.092Z,100739.90
2022-09-02T05:18:32.998Z,100740.02
2022-09-02T05:21:09.856Z,100738.34
2022-09-02T05:24:30.826Z,100739.63
2022-09-02T05:27:11.790Z,100740.09
2022-09-02T05:29:45.322Z,100729.39
2022-09-02T05:32:37.757Z,100736.58
2022-09-02T05:35:11.458Z,100737.89
2022-09-02T05:37:40.088Z,100740.20
2022-09-02T05:40:15.237Z,100741.60
2022-09-02T05:42:48.815Z,100737.89
2022-09-02T05:45:41.597Z,100741.88
2022-09-02T05:48:30.028Z,100737.59
2022-09-02T05:51:09.272Z,100739.75
2022-09-02T05:53:40.650Z,100742.38
2022-09-02T05:56:13.629Z,100737.73
2022-09-02T05:58:44.688Z,100737.87
2022-09-02T06:01:20.722Z,100748.92
2022-09-02T06:03:54.142Z,100748.87
2022-09-02T06:06:28.167Z,100740.49
2022-09-02T06:08:58.206Z,100739.33
2022-09-02T06:11:29.579Z,100742.21
2022-09-02T06:14:08.027Z,100736.32
2022-09-02T06:16:44.521Z,100740.36
2022-09-02T06:19:20.339Z,100742.16
2022-09-02T06:21:56.823Z,100739.14
2022-09-02T06:24:30.156Z,100734.89
2022-09-02T06:27:16.306Z,100738.27
2022-09-02T06:30:04.914Z,100735.73
2022-09-02T06:32:50.365Z,100735.52
2022-09-02T06:35:20.047Z,100737.50
2022-09-02T06:37:51.187Z,100735.09
2022-09-02T06:40:21.717Z,100735.46
2022-09-02T06:42:51.687Z,100734.41
2022-09-02T06:45:39.446Z,100731.61
2022-09-02T06:48:12.851Z,100731.14
2022-09-02T06:50:48.296Z,100734.98
2022-09-02T06:53:19.732Z,100733.40
2022-09-02T06:55:50.973Z,100736.13
2022-09-02T06:58:20.716Z,100735.58
2022-09-02T07:00:49.775Z,100732.20
2022-09-02T07:04:05.661Z,100737.48
2022-09-02T07:06:42.659Z,100735.26
2022-09-02T07:09:14.828Z,100739.08
2022-09-02T07:11:47.927Z,100741.23
2022-09-02T07:14:18.574Z,100740.77
2022-09-02T07:17:00.983Z,100742.95
2022-09-02T07:19:32.176Z,100744.02
2022-09-02T07:22:06.652Z,100744.38
2022-09-02T07:24:39.050Z,100741.99
2022-09-02T07:27:08.592Z,100745.41
2022-09-02T07:29:37.683Z,100744.36
2022-09-02T07:32:06.522Z,100742.92
2022-09-02T07:34:35.594Z,100741.10
2022-09-02T07:37:09.988Z,100743.14
2022-09-02T07:39:40.984Z,100745.59
2022-09-02T07:42:11.916Z,100748.52
2022-09-02T07:44:40.283Z,100748.21
2022-09-02T07:47:09.065Z,100746.84
2022-09-02T07:52:30.242Z,100744.23
2022-09-02T07:54:59.116Z,100740.63
2022-09-02T07:57:27.997Z,100743.25
2022-09-02T07:59:57.004Z,100746.98
2022-09-02T08:02:25.960Z,100746.42
2022-09-02T08:04:57.995Z,100745.27
2022-09-02T08:07:29.651Z,100746.48
2022-09-02T08:10:02.383Z,100742.09
2022-09-02T08:12:30.640Z,100735.52
2022-09-02T08:14:58.844Z,100738.58
2022-09-02T08:17:28.012Z,100739.86
2022-09-02T08:19:57.777Z,100738.41
2022-09-02T08:22:27.129Z,100739.35
2022-09-02T08:24:55.669Z,100738.35
2022-09-02T08:27:24.686Z,100739.63
2022-09-02T08:29:52.522Z,100734.59
2022-09-02T08:32:21.296Z,100738.73
2022-09-02T08:34:49.320Z,100737.00
2022-09-02T08:37:19.107Z,100737.29
2022-09-02T08:39:48.521Z,100735.23
2022-09-02T08:42:29.134Z,100737.20
2022-09-02T08:45:06.356Z,100739.58
2022-09-02T08:47:40.277Z,100734.29
2022-09-02T08:50:15.857Z,100735.60
2022-09-02T08:52:56.093Z,100732.52
2022-09-02T08:55:33.213Z,100727.58
2022-09-02T08:58:02.668Z,100727.83
2022-09-02T09:00:43.305Z,100718.94
2022-09-02T09:03:24.298Z,100721.43
2022-09-02T09:05:52.215Z,100715.05
2022-09-02T09:08:26.391Z,100715.33
2022-09-02T09:11:39.532Z,100713.09
2022-09-02T09:14:38.705Z,100714.77
2022-09-02T09:17:26.499Z,100712.24
2022-09-02T09:19:58.657Z,100706.27
2022-09-02T09:22:42.615Z,100707.38
2022-09-02T09:25:16.582Z,100705.70
2022-09-02T09:27:46.384Z,100699.84
2022-09-02T09:30:15.632Z,100696.73
2022-09-02T09:32:48.195Z,100703.46
2022-09-02T09:35:18.254Z,100702.00
2022-09-02T09:37:48.474Z,100700.59
2022-09-02T09:40:20.849Z,100702.45
2022-09-02T09:43:05.888Z,100698.84
2022-09-02T09:45:49.419Z,100690.34
2022-09-02T09:48:22.834Z,100689.01
2022-09-02T09:51:05.075Z,100686.81
2022-09-02T09:53:35.064Z,100686.26
2022-09-02T09:56:07.946Z,100683.64
2022-09-02T09:58:42.028Z,100687.31
2022-09-02T10:01:29.089Z,100684.77
2022-09-02T10:04:12.225Z,100683.04
2022-09-02T10:06:52.995Z,100674.85
2022-09-02T10:09:21.105Z,100675.36
2022-09-02T10:11:57.927Z,100669.48
2022-09-02T10:14:41.511Z,100664.30
2022-09-02T10:17:34.206Z,100663.27
2022-09-02T10:20:32.869Z,100663.16
2022-09-02T10:23:17.331Z,100658.27
2022-09-02T10:25:53.990Z,100653.20
2022-09-02T10:28:34.754Z,100656.42
2022-09-02T10:31:11.858Z,100655.27
2022-09-02T10:34:04.340Z,100656.20
2022-09-02T10:36:59.383Z,100653.48
2022-09-02T10:40:08.691Z,100645.98
2022-09-02T10:43:05.579Z,100648.80
2022-09-02T10:45:48.275Z,100644.35
2022-09-02T10:48:30.140Z,100645.22
2022-09-02T10:51:20.542Z,100642.09
2022-09-02T10:54:09.746Z,100639.66
2022-09-02T10:56:57.755Z,100637.20
2022-09-02T10:59:38.197Z,100633.32
2022-09-02T11:02:25.667Z,100634.83
2022-09-02T11:05:05.408Z,100629.91
2022-09-02T11:08:07.379Z,100633.05
2022-09-02T11:10:45.578Z,100632.93
2022-09-02T11:13:38.529Z,100632.89
2022-09-02T11:16:15.897Z,100634.36
2022-09-02T11:18:59.296Z,100630.04
2022-09-02T11:22:04.990Z,100628.73
2022-09-02T11:24:48.856Z,100630.33
2022-09-02T11:27:26.290Z,100618.73
2022-09-02T11:30:09.218Z,100618.60
2022-09-02T11:33:20.759Z,100621.38
2022-09-02T11:35:51.205Z,100619.30
2022-09-02T11:38:33.318Z,100619.64
2022-09-02T11:41:35.179Z,100619.09
2022-09-02T11:44:19.457Z,100614.61
2022-09-02T11:47:02.662Z,100614.45
2022-09-02T11:49:44.339Z,100614.52
2022-09-02T11:52:38.199Z,100610.40
2022-09-02T11:55:08.808Z,100604.33
2022-09-02T11:57:41.410Z,100601.89
2022-09-02T12:00:24.668Z,100604.73
2022-09-02T12:02:58.263Z,100600.51
2022-09-02T12:05:30.265Z,100601.18
2022-09-02T12:08:04.622Z,100596.88
2022-09-02T12:10:40.057Z,100593.18
2022-09-02T12:13:18.531Z,100594.09
2022-09-02T12:16:21.686Z,100590.78
2022-09-02T12:18:55.843Z,100583.33
2022-09-02T12:21:29.228Z,100582.52
2022-09-02T12:24:03.563Z,100583.13
2022-09-02T12:26:39.221Z,100580.20
2022-09-02T12:29:21.414Z,100578.84
2022-09-02T12:31:51.600Z,100573.42
2022-09-02T12:34:29.739Z,100572.98
2022-09-02T12:36:59.527Z,100566.82
2022-09-02T12:39:28.805Z,100564.46
2022-09-02T12:42:09.213Z,100555.96
2022-09-02T12:44:59.666Z,100556.18
2022-09-02T12:47:58.043Z,100556.17
2022-09-02T12:50:55.301Z,100550.38
2022-09-02T12:53:43.560Z,100553.44
2022-09-02T12:56:23.518Z,100554.31
2022-09-02T12:58:54.794Z,100555.73
2022-09-02T13:01:27.933Z,100548.60
2022-09-02T13:04:26.473Z,100552.38
2022-09-02T13:07:10.111Z,100552.30
2022-09-02T13:09:56.226Z,100550.54
2022-09-02T13:12:55.406Z,100546.73
2022-09-02T13:15:34.912Z,100544.11
2022-09-02T13:18:24.751Z,100535.62
2022-09-02T13:21:14.672Z,100536.29
2022-09-02T13:24:22.906Z,100541.46
2022-09-02T13:27:11.599Z,100539.08
2022-09-02T13:29:57.836Z,100536.90
2022-09-02T13:32:29.151Z,100541.66
2022-09-02T13:35:01.548Z,100537.77
2022-09-02T13:37:36.642Z,100531.44
2022-09-02T13:40:17.915Z,100533.65
2022-09-02T13:42:57.958Z,100530.02
2022-09-02T13:45:28.866Z,100524.88
2022-09-02T13:48:01.034Z,100523.44
2022-09-02T13:50:30.776Z,100523.17
2022-09-02T13:55:53.774Z,100506.98
2022-09-02T13:58:31.141Z,100501.39
2022-09-02T14:01:19.348Z,100497.20
2022-09-02T14:03:50.787Z,100494.80
2022-09-02T14:06:24.511Z,100498.45
2022-09-02T14:09:05.010Z,100504.84
2022-09-02T14:11:45.058Z,100500.06
2022-09-02T14:14:15.979Z,100505.61
2022-09-02T14:16:44.077Z,100503.89
2022-09-02T14:19:24.108Z,100504.55
2022-09-02T14:21:57.697Z,100506.27
2022-09-02T14:24:37.201Z,100507.57
2022-09-02T14:27:18.194Z,100510.23
2022-09-02T14:29:50.892Z,100514.13
2022-09-02T14:32:27.158Z,100514.19
2022-09-02T14:35:09.403Z,100514.06
2022-09-02T14:37:59.716Z,100514.64
2022-09-02T14:40:43.573Z,100514.19
2022-09-02T14:43:14.575Z,100511.66
2022-09-02T14:45:52.091Z,100509.29
2022-09-02T14:48:25.070Z,100506.36
2022-09-02T14:51:03.088Z,100511.08
2022-09-02T14:53:32.483Z,100512.39
2022-09-02T14:56:01.084Z,100511.45
2022-09-02T14:58:29.811Z,100511.90
2022-09-02T15:01:01.881Z,100514.48
2022-09-02T15:03:32.134Z,100511.20
2022-09-02T15:06:00.141Z,100511.40
2022-09-02T15:08:29.434Z,100510.09
2022-09-02T15:11:03.775Z,100506.08
2022-09-02T15:13:34.508Z,100505.31
2022-09-02T15:16:03.415Z,100503.92
2022-09-02T15:18:31.973Z,100498.52
2022-09-02T15:21:00.074Z,100499.85
2022-09-02T15:23:32.559Z,100502.77
2022-09-02T15:26:03.890Z,100501.20
2022-09-02T15:28:32.066Z,100498.64
2022-09-02T15:31:02.020Z,100501.45
2022-09-02T15:33:31.090Z,100500.38
2022-09-02T15:36:13.980Z,100498.63
2022-09-02T15:38:42.638Z,100503.05
2022-09-02T15:41:19.329Z,100496.91
2022-09-02T15:43:48.629Z,100493.23
2022-09-02T15:46:30.835Z,100491.27
2022-09-02T15:49:15.421Z,100491.73
2022-09-02T15:51:45.665Z,100488.88
2022-09-02T15:54:16.592Z,100489.80
2022-09-02T15:56:46.187Z,100488.72
2022-09-02T15:59:18.957Z,100490.77
2022-09-02T16:02:17.144Z,100492.95
2022-09-02T16:04:46.611Z,100493.75
2022-09-02T16:07:16.804Z,100492.41
2022-09-02T16:09:46.052Z,100491.30
2022-09-02T16:12:14.063Z,100493.01
2022-09-02T16:14:43.773Z,100493.60
2022-09-02T16:17:11.778Z,100490.78
2022-09-02T16:19:40.417Z,100494.48
2022-09-02T16:22:08.913Z,100490.06
2022-09-02T16:24:37.589Z,100491.95
2022-09-02T16:27:05.934Z,100486.84
2022-09-02T16:29:37.394Z,100483.33
2022-09-02T16:34:56.241Z,100481.70
2022-09-02T16:37:24.295Z,100479.59
2022-09-02T16:39:54.970Z,100477.63
2022-09-02T16:42:27.865Z,100478.83
2022-09-02T16:44:57.395Z,100476.48
2022-09-02T16:47:25.384Z,100477.91
2022-09-02T16:49:54.248Z,100475.94
2022-09-02T16:52:45.259Z,100472.66
2022-09-02T16:55:18.148Z,100473.20
2022-09-02T16:57:47.189Z,100474.09
2022-09-02T17:00:16.320Z,100475.28
2022-09-02T17:02:46.843Z,100476.88
2022-09-02T17:05:18.249Z,100475.58
2022-09-02T17:07:46.901Z,100474.18
2022-09-02T17:10:14.901Z,100477.23
2022-09-02T17:12:43.472Z,100472.56
2022-09-02T17:15:12.964Z,100474.92
2022-09-02T17:17:42.486Z,100476.73
2022-09-02T17:20:13.264Z,100476.88
2022-09-02T17:22:44.821Z,100481.27
2022-09-02T17:25:14.020Z,100480.05
2022-09-02T17:27:45.922Z,100479.27
2022-09-02T17:30:18.409Z,100478.87
2022-09-02T17:32:46.509Z,100477.08
2022-09-02T17:35:19.182Z,100478.14
2022-09-02T17:37:47.652Z,100481.40
2022-09-02T17:40:44.861Z,100479.44
2022-09-02T17:43:17.082Z,100477.35
2022-09-02T17:45:51.344Z,100480.42
2022-09-02T17:48:45.184Z,100482.87
2022-09-02T17:51:19.758Z,100479.64
2022-09-02T17:53:50.464Z,100481.02
2022-09-02T17:56:57.963Z,100482.59
2022-09-02T17:59:51.722Z,100485.16
2022-09-02T18:02:41.267Z,100488.29
2022-09-02T18:05:40.353Z,100488.48
2022-09-02T18:08:34.705Z,100488.80
2022-09-02T18:11:05.913Z,100489.13
2022-09-02T18:13:54.687Z,100490.99
2022-09-02T18:16:28.669Z,100490.33
2022-09-02T18:19:08.646Z,100488.17
2022-09-02T18:22:06.545Z,100487.69
2022-09-02T18:24:41.242Z,100492.38
2022-09-02T18:27:43.657Z,100491.79
2022-09-02T18:30:19.117Z,100492.52
2022-09-02T18:33:30.613Z,100489.55
2022-09-02T18:36:39.956Z,100492.02
2022-09-02T18:39:42.460Z,100492.38
2022-09-02T18:42:38.236Z,100494.71
2022-09-02T18:45:28.467Z,100497.37
2022-09-02T18:48:08.489Z,100494.34
2022-09-02T18:50:51.423Z,100497.27
2022-09-02T18:53:38.216Z,100500.66
2022-09-02T18:56:11.919Z,100505.39
2022-09-02T18:59:02.307Z,100504.61
2022-09-02T19:01:43.099Z,100505.02
2022-09-02T19:04:21.278Z,100508.58
2022-09-02T19:07:14.123Z,100506.98
2022-09-02T19:09:48.420Z,100509.29
2022-09-02T19:12:19.528Z,100513.33
2022-09-02T19:14:57.601Z,100517.05
2022-09-02T19:17:37.192Z,100516.79
2022-09-02T19:20:12.945Z,100513.42
2022-09-02T19:22:51.138Z,100513.31
2022-09-02T19:25:32.314Z,100516.70
2022-09-02T19:28:06.381Z,100512.02
2022-09-02T19:30:37.927Z,100512.91
2022-09-02T19:33:18.958Z,100509.98
2022-09-02T19:35:49.963Z,100511.78
2022-09-02T19:38:18.206Z,100514.63
2022-09-02T19:40:54.595Z,100515.38
2022-09-02T19:43:23.576Z,100517.44
2022-09-02T19:45:59.143Z,100519.35
2022-09-02T19:48:39.844Z,100521.94
2022-09-02T19:51:17.081Z,100521.39
2022-09-02T19:53:49.425Z,100523.09
2022-09-02T19:56:20.398Z,100522.48
2022-09-02T19:58:48.642Z,100529.71
2022-09-02T20:01:21.140Z,100527.70
2022-09-02T20:03:52.639Z,100525.33
2022-09-02T20:06:21.965Z,100521.66
2022-09-02T20:08:53.839Z,100523.59
2022-09-02T20:11:27.940Z,100520.01
2022-09-02T20:14:09.154Z,100519.89
2022-09-02T20:16:37.677Z,100519.13
2022-09-02T20:19:12.208Z,100519.33
2022-09-02T20:21:47.662Z,100513.51
2022-09-02T20:24:31.580Z,100516.80
2022-09-02T20:27:25.633Z,100517.96
2022-09-02T20:30:15.608Z,100515.08
2022-09-02T20:33:13.660Z,100520.98
2022-09-02T20:36:14.396Z,100524.41
2022-09-02T20:39:13.064Z,100523.19
2022-09-02T20:41:59.041Z,100525.39
2022-09-02T20:44:38.661Z,100522.59
2022-09-02T20:47:59.271Z,100519.30
2022-09-02T20:50:59.412Z,100523.98
2022-09-02T20:54:00.939Z,100526.48
2022-09-02T20:57:18.201Z,100523.17
2022-09-02T21:00:11.868Z,100518.23
2022-09-02T21:03:19.287Z,100518.58
2022-09-02T21:06:02.367Z,100514.66
2022-09-02T21:08:51.443Z,100518.19
2022-09-02T21:11:29.555Z,100517.93
2022-09-02T21:14:12.748Z,100518.91
2022-09-02T21:17:12.077Z,100519.58
2022-09-02T21:19:55.739Z,100524.77
2022-09-02T21:22:38.762Z,100521.52
2022-09-02T21:25:44.334Z,100521.34
2022-09-02T21:28:20.579Z,100524.02
2022-09-02T21:31:01.699Z,100524.23
2022-09-02T21:33:38.038Z,100517.90
2022-09-02T21:36:21.067Z,100515.17
2022-09-02T21:39:03.252Z,100519.79
2022-09-02T21:41:44.746Z,100519.07
2022-09-02T21:45:03.519Z,100516.41
2022-09-02T21:48:00.252Z,100512.17
2022-09-02T21:51:06.799Z,100513.05
2022-09-02T21:54:25.808Z,100513.14
2022-09-02T21:57:45.439Z,100513.81
2022-09-02T22:00:17.129Z,100514.16
2022-09-02T22:02:58.748Z,100513.50
2022-09-02T22:05:45.619Z,100509.65
2022-09-02T22:08:54.768Z,100511.16
2022-09-02T22:11:54.861Z,100511.57
2022-09-02T22:14:44.870Z,100515.57
2022-09-02T22:17:45.759Z,100517.17
2022-09-02T22:20:47.433Z,100510.38
2022-09-02T22:23:43.132Z,100512.42
2022-09-02T22:27:05.002Z,100515.17
2022-09-02T22:30:18.836Z,100514.94
2022-09-02T22:33:40.387Z,100512.45
2022-09-02T22:36:53.867Z,100519.20
2022-09-02T22:39:53.817Z,100518.56
2022-09-02T22:42:37.680Z,100517.63
2022-09-02T22:46:02.145Z,100519.32
2022-09-02T22:49:16.591Z,100521.13
2022-09-02T22:52:10.984Z,100519.88
2022-09-02T22:54:49.268Z,100521.88
2022-09-02T22:58:21.359Z,100520.23
2022-09-02T23:00:58.396Z,100518.26
2022-09-02T23:03:45.391Z,100519.53
2022-09-02T23:06:38.132Z,100516.31
2022-09-02T23:09:28.350Z,100517.13
2022-09-02T23:12:00.495Z,100514.83
2022-09-02T23:14:48.170Z,100516.18
2022-09-02T23:18:08.201Z,100516.83
2022-09-02T23:20:55.128Z,100509.11
2022-09-02T23:24:03.723Z,100506.50
2022-09-02T23:27:31.898Z,100512.87
2022-09-02T23:30:17.546Z,100510.79
2022-09-02T23:33:45.062Z,100506.05
2022-09-02T23:36:35.604Z,100502.27
2022-09-02T23:39:51.290Z,100501.78
2022-09-02T23:42:33.878Z,100500.96
2022-09-02T23:45:24.359Z,100494.96
2022-09-02T23:48:16.438Z,100494.13
2022-09-02T23:50:59.499Z,100494.83
2022-09-02T23:53:40.771Z,100495.86
2022-09-02T23:56:30.973Z,100492.59
2022-09-02T23:59:34.122Z,100491.83
